Aviation Digital Data Service (ADDS)

Output produced by METARs form (1711 UTC 16 June 2019)
found at http://www.aviationweather.gov/metar/data/
 
BKPR 161700Z 20009KT 9999 TS SCT035CB SCT045 26/14 Q1013 NOSIG
TAF BKPR 161130Z 1612/1712 VRB05KT 9999 SCT040 
     TEMPO 1614/1620 VRB15G25KT 3000 TSRA SCT025CB